sensor_id;sensor_type;location;lat;lon;timestamp;P1;durP1;ratioP1;P2;durP2;ratioP2
13797;SDS011;6970;51.340;3.240;2022-11-18T00:01:07;2.73;;;1.70;;
13797;SDS011;6970;51.340;3.240;2022-11-18T00:03:38;3.63;;;1.40;;
13797;SDS011;6970;51.340;3.240;2022-11-18T00:06:06;2.30;;;1.33;;
13797;SDS011;6970;51.340;3.240;2022-11-18T00:08:35;5.40;;;1.53;;
13797;SDS011;6970;51.340;3.240;2022-11-18T00:11:07;3.90;;;1.27;;
13797;SDS011;6970;51.340;3.240;2022-11-18T00:13:35;4.53;;;1.70;;
13797;SDS011;6970;51.340;3.240;2022-11-18T00:16:22;2.27;;;1.40;;
13797;SDS011;6970;51.340;3.240;2022-11-18T00:18:49;3.17;;;1.40;;
13797;SDS011;6970;51.340;3.240;2022-11-18T00:21:16;3.40;;;1.50;;
13797;SDS011;6970;51.340;3.240;2022-11-18T00:23:43;3.30;;;1.53;;
13797;SDS011;6970;51.340;3.240;2022-11-18T00:26:11;4.67;;;2.10;;
13797;SDS011;6970;51.340;3.240;2022-11-18T00:28:39;6.37;;;1.73;;
13797;SDS011;6970;51.340;3.240;2022-11-18T00:31:08;5.17;;;1.67;;
13797;SDS011;6970;51.340;3.240;2022-11-18T00:33:36;3.33;;;1.50;;
13797;SDS011;6970;51.340;3.240;2022-11-18T00:36:05;2.20;;;1.50;;
13797;SDS011;6970;51.340;3.240;2022-11-18T00:38:34;3.23;;;1.80;;
13797;SDS011;6970;51.340;3.240;2022-11-18T00:41:11;2.73;;;1.70;;
13797;SDS011;6970;51.340;3.240;2022-11-18T00:43:39;2.10;;;1.60;;
13797;SDS011;6970;51.340;3.240;2022-11-18T00:46:08;3.30;;;1.27;;
13797;SDS011;6970;51.340;3.240;2022-11-18T00:48:36;4.60;;;1.53;;
13797;SDS011;6970;51.340;3.240;2022-11-18T00:53:37;4.73;;;1.80;;
13797;SDS011;6970;51.340;3.240;2022-11-18T00:56:04;4.67;;;1.40;;
13797;SDS011;6970;51.340;3.240;2022-11-18T00:58:32;3.93;;;1.40;;
13797;SDS011;6970;51.340;3.240;2022-11-18T01:00:59;4.40;;;1.80;;
13797;SDS011;6970;51.340;3.240;2022-11-18T01:03:27;4.70;;;1.70;;
13797;SDS011;6970;51.340;3.240;2022-11-18T01:05:54;5.00;;;1.83;;
13797;SDS011;6970;51.340;3.240;2022-11-18T01:08:22;5.90;;;1.90;;
13797;SDS011;6970;51.340;3.240;2022-11-18T01:10:49;4.57;;;2.20;;
13797;SDS011;6970;51.340;3.240;2022-11-18T01:13:17;5.73;;;2.00;;
13797;SDS011;6970;51.340;3.240;2022-11-18T01:15:47;1.57;;;1.40;;
13797;SDS011;6970;51.340;3.240;2022-11-18T01:18:19;5.27;;;1.83;;
13797;SDS011;6970;51.340;3.240;2022-11-18T01:20:47;4.63;;;1.93;;
13797;SDS011;6970;51.340;3.240;2022-11-18T01:23:15;3.67;;;1.67;;
13797;SDS011;6970;51.340;3.240;2022-11-18T01:25:43;7.67;;;2.13;;
13797;SDS011;6970;51.340;3.240;2022-11-18T01:28:11;4.27;;;1.80;;
13797;SDS011;6970;51.340;3.240;2022-11-18T01:30:42;4.80;;;1.90;;
13797;SDS011;6970;51.340;3.240;2022-11-18T01:33:10;6.00;;;1.90;;
13797;SDS011;6970;51.340;3.240;2022-11-18T01:35:38;3.20;;;1.70;;
13797;SDS011;6970;51.340;3.240;2022-11-18T01:38:07;6.60;;;2.00;;
13797;SDS011;6970;51.340;3.240;2022-11-18T01:40:38;3.17;;;1.53;;
13797;SDS011;6970;51.340;3.240;2022-11-18T01:43:12;5.40;;;1.90;;
13797;SDS011;6970;51.340;3.240;2022-11-18T01:45:41;3.30;;;1.70;;
13797;SDS011;6970;51.340;3.240;2022-11-18T01:48:17;3.57;;;1.73;;
13797;SDS011;6970;51.340;3.240;2022-11-18T01:50:57;3.33;;;1.90;;
13797;SDS011;6970;51.340;3.240;2022-11-18T01:53:38;6.57;;;2.07;;
13797;SDS011;6970;51.340;3.240;2022-11-18T01:56:11;4.00;;;1.97;;
13797;SDS011;6970;51.340;3.240;2022-11-18T01:58:45;7.00;;;1.77;;
13797;SDS011;6970;51.340;3.240;2022-11-18T02:01:17;5.27;;;1.80;;
13797;SDS011;6970;51.340;3.240;2022-11-18T02:03:44;3.23;;;1.70;;
13797;SDS011;6970;51.340;3.240;2022-11-18T02:06:14;5.07;;;1.47;;
13797;SDS011;6970;51.340;3.240;2022-11-18T02:08:42;4.17;;;1.60;;
13797;SDS011;6970;51.340;3.240;2022-11-18T02:11:10;3.43;;;1.87;;
13797;SDS011;6970;51.340;3.240;2022-11-18T02:13:57;5.90;;;1.80;;
13797;SDS011;6970;51.340;3.240;2022-11-18T02:16:39;6.60;;;1.93;;
13797;SDS011;6970;51.340;3.240;2022-11-18T02:31:29;5.43;;;1.90;;
13797;SDS011;6970;51.340;3.240;2022-11-18T02:33:37;3.80;;;1.60;;
13797;SDS011;6970;51.340;3.240;2022-11-18T02:36:43;5.27;;;1.67;;
13797;SDS011;6970;51.340;3.240;2022-11-18T02:39:24;3.00;;;1.40;;
13797;SDS011;6970;51.340;3.240;2022-11-18T02:41:58;7.17;;;1.67;;
13797;SDS011;6970;51.340;3.240;2022-11-18T02:44:28;4.40;;;1.73;;
13797;SDS011;6970;51.340;3.240;2022-11-18T02:46:58;3.20;;;1.87;;
13797;SDS011;6970;51.340;3.240;2022-11-18T02:49:39;2.97;;;1.50;;
13797;SDS011;6970;51.340;3.240;2022-11-18T02:52:09;3.77;;;1.53;;
13797;SDS011;6970;51.340;3.240;2022-11-18T02:54:38;4.30;;;1.60;;
13797;SDS011;6970;51.340;3.240;2022-11-18T02:57:07;5.50;;;1.47;;
13797;SDS011;6970;51.340;3.240;2022-11-18T02:59:34;3.83;;;2.30;;
13797;SDS011;6970;51.340;3.240;2022-11-18T03:02:01;2.70;;;1.47;;
13797;SDS011;6970;51.340;3.240;2022-11-18T03:04:29;4.10;;;1.60;;
13797;SDS011;6970;51.340;3.240;2022-11-18T03:09:41;3.80;;;1.43;;
13797;SDS011;6970;51.340;3.240;2022-11-18T03:15:10;4.37;;;1.87;;
13797;SDS011;6970;51.340;3.240;2022-11-18T03:20:32;3.27;;;1.67;;
13797;SDS011;6970;51.340;3.240;2022-11-18T03:23:07;5.33;;;2.10;;
13797;SDS011;6970;51.340;3.240;2022-11-18T03:31:05;4.57;;;1.90;;
13797;SDS011;6970;51.340;3.240;2022-11-18T03:33:38;2.90;;;1.37;;
13797;SDS011;6970;51.340;3.240;2022-11-18T03:36:08;4.80;;;1.60;;
13797;SDS011;6970;51.340;3.240;2022-11-18T03:38:41;7.43;;;1.70;;
13797;SDS011;6970;51.340;3.240;2022-11-18T03:41:11;4.93;;;1.73;;
13797;SDS011;6970;51.340;3.240;2022-11-18T03:43:43;4.67;;;1.40;;
13797;SDS011;6970;51.340;3.240;2022-11-18T03:46:22;5.03;;;1.50;;
13797;SDS011;6970;51.340;3.240;2022-11-18T03:48:57;5.00;;;1.40;;
13797;SDS011;6970;51.340;3.240;2022-11-18T03:51:29;7.73;;;2.47;;
13797;SDS011;6970;51.340;3.240;2022-11-18T03:54:06;4.30;;;1.90;;
13797;SDS011;6970;51.340;3.240;2022-11-18T03:56:38;6.60;;;2.10;;
13797;SDS011;6970;51.340;3.240;2022-11-18T03:59:23;4.63;;;2.03;;
13797;SDS011;6970;51.340;3.240;2022-11-18T04:02:16;3.23;;;1.80;;
13797;SDS011;6970;51.340;3.240;2022-11-18T04:04:49;8.97;;;2.07;;
13797;SDS011;6970;51.340;3.240;2022-11-18T04:12:34;4.90;;;1.93;;
13797;SDS011;6970;51.340;3.240;2022-11-18T04:15:06;5.03;;;1.60;;
13797;SDS011;6970;51.340;3.240;2022-11-18T04:17:34;7.47;;;2.00;;
13797;SDS011;6970;51.340;3.240;2022-11-18T04:20:01;5.77;;;1.60;;
13797;SDS011;6970;51.340;3.240;2022-11-18T04:22:28;6.30;;;2.00;;
13797;SDS011;6970;51.340;3.240;2022-11-18T04:24:55;3.47;;;1.80;;
13797;SDS011;6970;51.340;3.240;2022-11-18T04:27:22;6.10;;;1.87;;
13797;SDS011;6970;51.340;3.240;2022-11-18T04:29:49;4.13;;;1.83;;
13797;SDS011;6970;51.340;3.240;2022-11-18T04:32:16;5.87;;;1.97;;
13797;SDS011;6970;51.340;3.240;2022-11-18T04:34:44;6.33;;;1.67;;
13797;SDS011;6970;51.340;3.240;2022-11-18T04:37:11;3.03;;;1.50;;
13797;SDS011;6970;51.340;3.240;2022-11-18T04:39:37;4.27;;;1.40;;
13797;SDS011;6970;51.340;3.240;2022-11-18T04:42:04;6.43;;;2.17;;
13797;SDS011;6970;51.340;3.240;2022-11-18T04:44:32;4.40;;;1.50;;
13797;SDS011;6970;51.340;3.240;2022-11-18T04:47:00;4.73;;;1.67;;
13797;SDS011;6970;51.340;3.240;2022-11-18T04:49:29;7.87;;;2.30;;
13797;SDS011;6970;51.340;3.240;2022-11-18T04:51:56;5.37;;;1.90;;
13797;SDS011;6970;51.340;3.240;2022-11-18T04:54:24;6.10;;;2.40;;
13797;SDS011;6970;51.340;3.240;2022-11-18T04:56:51;7.83;;;2.50;;
13797;SDS011;6970;51.340;3.240;2022-11-18T04:59:20;6.17;;;1.80;;
13797;SDS011;6970;51.340;3.240;2022-11-18T05:01:49;9.33;;;1.83;;
13797;SDS011;6970;51.340;3.240;2022-11-18T05:04:17;4.90;;;2.00;;
13797;SDS011;6970;51.340;3.240;2022-11-18T05:06:46;4.30;;;1.97;;
13797;SDS011;6970;51.340;3.240;2022-11-18T05:09:14;5.97;;;2.30;;
13797;SDS011;6970;51.340;3.240;2022-11-18T05:11:42;7.83;;;2.43;;
13797;SDS011;6970;51.340;3.240;2022-11-18T05:14:28;3.30;;;1.90;;
13797;SDS011;6970;51.340;3.240;2022-11-18T05:16:56;5.77;;;2.13;;
13797;SDS011;6970;51.340;3.240;2022-11-18T05:19:24;8.13;;;2.07;;
13797;SDS011;6970;51.340;3.240;2022-11-18T05:21:52;4.10;;;2.10;;
13797;SDS011;6970;51.340;3.240;2022-11-18T05:24:20;5.67;;;2.40;;
13797;SDS011;6970;51.340;3.240;2022-11-18T05:26:50;5.20;;;2.60;;
13797;SDS011;6970;51.340;3.240;2022-11-18T05:29:18;6.10;;;2.00;;
13797;SDS011;6970;51.340;3.240;2022-11-18T05:31:47;7.17;;;2.70;;
13797;SDS011;6970;51.340;3.240;2022-11-18T05:34:14;7.60;;;2.20;;
13797;SDS011;6970;51.340;3.240;2022-11-18T05:36:41;3.60;;;2.20;;
13797;SDS011;6970;51.340;3.240;2022-11-18T05:39:08;5.17;;;2.37;;
13797;SDS011;6970;51.340;3.240;2022-11-18T05:41:35;5.23;;;2.07;;
13797;SDS011;6970;51.340;3.240;2022-11-18T05:44:21;3.93;;;2.20;;
13797;SDS011;6970;51.340;3.240;2022-11-18T05:46:48;7.23;;;2.60;;
13797;SDS011;6970;51.340;3.240;2022-11-18T05:49:14;5.27;;;2.30;;
13797;SDS011;6970;51.340;3.240;2022-11-18T05:51:42;4.77;;;2.40;;
13797;SDS011;6970;51.340;3.240;2022-11-18T05:54:09;4.33;;;2.53;;
13797;SDS011;6970;51.340;3.240;2022-11-18T05:56:40;4.03;;;2.27;;
13797;SDS011;6970;51.340;3.240;2022-11-18T05:59:10;6.33;;;2.33;;
13797;SDS011;6970;51.340;3.240;2022-11-18T06:06:51;8.80;;;2.50;;
13797;SDS011;6970;51.340;3.240;2022-11-18T06:09:23;7.27;;;2.80;;
13797;SDS011;6970;51.340;3.240;2022-11-18T06:11:55;6.00;;;2.50;;
13797;SDS011;6970;51.340;3.240;2022-11-18T06:14:28;6.83;;;2.23;;
13797;SDS011;6970;51.340;3.240;2022-11-18T06:16:58;6.47;;;1.90;;
13797;SDS011;6970;51.340;3.240;2022-11-18T06:19:30;5.93;;;2.77;;
13797;SDS011;6970;51.340;3.240;2022-11-18T06:21:58;5.57;;;1.87;;
13797;SDS011;6970;51.340;3.240;2022-11-18T06:24:26;4.10;;;2.10;;
13797;SDS011;6970;51.340;3.240;2022-11-18T06:26:54;8.47;;;2.20;;
13797;SDS011;6970;51.340;3.240;2022-11-18T06:29:23;6.27;;;2.20;;
13797;SDS011;6970;51.340;3.240;2022-11-18T06:31:55;6.97;;;1.90;;
13797;SDS011;6970;51.340;3.240;2022-11-18T06:34:22;6.70;;;2.13;;
13797;SDS011;6970;51.340;3.240;2022-11-18T06:36:49;7.67;;;2.40;;
13797;SDS011;6970;51.340;3.240;2022-11-18T06:39:16;6.77;;;2.00;;
13797;SDS011;6970;51.340;3.240;2022-11-18T06:41:43;6.53;;;1.87;;
13797;SDS011;6970;51.340;3.240;2022-11-18T06:44:11;12.13;;;2.60;;
13797;SDS011;6970;51.340;3.240;2022-11-18T06:46:38;5.57;;;2.20;;
13797;SDS011;6970;51.340;3.240;2022-11-18T06:49:24;6.33;;;1.83;;
13797;SDS011;6970;51.340;3.240;2022-11-18T06:51:52;4.73;;;2.00;;
13797;SDS011;6970;51.340;3.240;2022-11-18T06:54:19;7.70;;;2.50;;
13797;SDS011;6970;51.340;3.240;2022-11-18T06:56:47;6.60;;;2.57;;
13797;SDS011;6970;51.340;3.240;2022-11-18T06:59:14;4.60;;;1.93;;
13797;SDS011;6970;51.340;3.240;2022-11-18T07:01:47;4.93;;;1.90;;
13797;SDS011;6970;51.340;3.240;2022-11-18T07:04:14;9.07;;;2.40;;
13797;SDS011;6970;51.340;3.240;2022-11-18T07:06:41;5.00;;;2.30;;
13797;SDS011;6970;51.340;3.240;2022-11-18T07:09:08;7.93;;;2.13;;
13797;SDS011;6970;51.340;3.240;2022-11-18T07:11:35;6.93;;;2.23;;
13797;SDS011;6970;51.340;3.240;2022-11-18T07:14:03;6.07;;;2.40;;
13797;SDS011;6970;51.340;3.240;2022-11-18T07:16:30;8.17;;;2.67;;
13797;SDS011;6970;51.340;3.240;2022-11-18T07:18:59;7.37;;;2.13;;
13797;SDS011;6970;51.340;3.240;2022-11-18T07:21:26;8.73;;;2.60;;
13797;SDS011;6970;51.340;3.240;2022-11-18T07:23:55;4.73;;;2.20;;
13797;SDS011;6970;51.340;3.240;2022-11-18T07:26:22;5.63;;;2.13;;
13797;SDS011;6970;51.340;3.240;2022-11-18T07:28:49;5.67;;;2.73;;
13797;SDS011;6970;51.340;3.240;2022-11-18T07:31:17;10.50;;;2.50;;
13797;SDS011;6970;51.340;3.240;2022-11-18T07:33:46;7.40;;;2.13;;
13797;SDS011;6970;51.340;3.240;2022-11-18T07:36:14;4.93;;;2.20;;
13797;SDS011;6970;51.340;3.240;2022-11-18T07:38:45;7.87;;;2.57;;
13797;SDS011;6970;51.340;3.240;2022-11-18T07:41:13;7.60;;;2.30;;
13797;SDS011;6970;51.340;3.240;2022-11-18T07:43:45;8.53;;;2.20;;
13797;SDS011;6970;51.340;3.240;2022-11-18T07:48:50;6.70;;;2.00;;
13797;SDS011;6970;51.340;3.240;2022-11-18T07:51:20;9.03;;;2.27;;
13797;SDS011;6970;51.340;3.240;2022-11-18T07:53:49;7.87;;;2.77;;
13797;SDS011;6970;51.340;3.240;2022-11-18T07:56:16;4.53;;;2.30;;
13797;SDS011;6970;51.340;3.240;2022-11-18T07:58:43;6.60;;;2.20;;
13797;SDS011;6970;51.340;3.240;2022-11-18T08:03:42;6.93;;;2.10;;
13797;SDS011;6970;51.340;3.240;2022-11-18T08:06:10;10.43;;;2.90;;
13797;SDS011;6970;51.340;3.240;2022-11-18T08:08:39;7.37;;;2.20;;
13797;SDS011;6970;51.340;3.240;2022-11-18T08:11:07;6.70;;;2.50;;
13797;SDS011;6970;51.340;3.240;2022-11-18T08:13:35;7.37;;;2.60;;
13797;SDS011;6970;51.340;3.240;2022-11-18T08:16:03;13.20;;;2.53;;
13797;SDS011;6970;51.340;3.240;2022-11-18T08:18:36;6.10;;;2.37;;
13797;SDS011;6970;51.340;3.240;2022-11-18T08:21:03;7.43;;;2.47;;
13797;SDS011;6970;51.340;3.240;2022-11-18T08:23:31;5.13;;;2.80;;
13797;SDS011;6970;51.340;3.240;2022-11-18T08:26:09;7.37;;;2.17;;
13797;SDS011;6970;51.340;3.240;2022-11-18T08:28:41;9.30;;;2.30;;
13797;SDS011;6970;51.340;3.240;2022-11-18T08:31:19;6.80;;;2.17;;
13797;SDS011;6970;51.340;3.240;2022-11-18T08:34:05;5.83;;;1.97;;
13797;SDS011;6970;51.340;3.240;2022-11-18T08:36:34;11.47;;;2.87;;
13797;SDS011;6970;51.340;3.240;2022-11-18T08:39:04;9.37;;;2.73;;
13797;SDS011;6970;51.340;3.240;2022-11-18T08:41:33;4.50;;;1.93;;
13797;SDS011;6970;51.340;3.240;2022-11-18T08:44:03;4.87;;;1.93;;
13797;SDS011;6970;51.340;3.240;2022-11-18T08:46:30;7.27;;;2.60;;
13797;SDS011;6970;51.340;3.240;2022-11-18T08:48:58;7.67;;;2.20;;
13797;SDS011;6970;51.340;3.240;2022-11-18T08:51:25;4.37;;;1.90;;
13797;SDS011;6970;51.340;3.240;2022-11-18T08:53:52;6.10;;;2.00;;
13797;SDS011;6970;51.340;3.240;2022-11-18T08:56:20;6.80;;;2.07;;
13797;SDS011;6970;51.340;3.240;2022-11-18T08:58:48;4.40;;;1.77;;
13797;SDS011;6970;51.340;3.240;2022-11-18T09:01:16;5.20;;;2.13;;
13797;SDS011;6970;51.340;3.240;2022-11-18T09:03:43;5.90;;;2.00;;
13797;SDS011;6970;51.340;3.240;2022-11-18T09:06:11;5.13;;;1.70;;
13797;SDS011;6970;51.340;3.240;2022-11-18T09:08:43;4.90;;;1.77;;
13797;SDS011;6970;51.340;3.240;2022-11-18T09:11:11;6.27;;;2.40;;
13797;SDS011;6970;51.340;3.240;2022-11-18T09:13:43;7.20;;;2.17;;
13797;SDS011;6970;51.340;3.240;2022-11-18T09:16:31;8.27;;;2.27;;
13797;SDS011;6970;51.340;3.240;2022-11-18T09:18:59;4.53;;;2.20;;
13797;SDS011;6970;51.340;3.240;2022-11-18T09:21:46;10.93;;;3.00;;
13797;SDS011;6970;51.340;3.240;2022-11-18T09:24:13;3.13;;;1.70;;
13797;SDS011;6970;51.340;3.240;2022-11-18T09:26:41;7.43;;;2.20;;
13797;SDS011;6970;51.340;3.240;2022-11-18T09:29:08;5.57;;;2.30;;
13797;SDS011;6970;51.340;3.240;2022-11-18T09:31:37;6.03;;;2.37;;
13797;SDS011;6970;51.340;3.240;2022-11-18T09:34:04;4.47;;;2.03;;
13797;SDS011;6970;51.340;3.240;2022-11-18T09:36:31;5.70;;;2.20;;
13797;SDS011;6970;51.340;3.240;2022-11-18T09:38:58;9.07;;;2.33;;
13797;SDS011;6970;51.340;3.240;2022-11-18T09:49:57;10.83;;;2.90;;
13797;SDS011;6970;51.340;3.240;2022-11-18T09:55:37;6.97;;;1.93;;
13797;SDS011;6970;51.340;3.240;2022-11-18T09:58:10;7.40;;;2.67;;
13797;SDS011;6970;51.340;3.240;2022-11-18T10:00:43;5.77;;;2.20;;
13797;SDS011;6970;51.340;3.240;2022-11-18T10:03:20;5.80;;;2.30;;
13797;SDS011;6970;51.340;3.240;2022-11-18T10:11:42;6.23;;;2.30;;
13797;SDS011;6970;51.340;3.240;2022-11-18T10:14:38;5.03;;;2.20;;
13797;SDS011;6970;51.340;3.240;2022-11-18T10:23:20;4.83;;;2.20;;
13797;SDS011;6970;51.340;3.240;2022-11-18T10:25:52;8.70;;;2.30;;
13797;SDS011;6970;51.340;3.240;2022-11-18T10:30:51;13.57;;;2.47;;
13797;SDS011;6970;51.340;3.240;2022-11-18T10:35:45;15.53;;;3.03;;
13797;SDS011;6970;51.340;3.240;2022-11-18T10:48:42;7.70;;;2.57;;
13797;SDS011;6970;51.340;3.240;2022-11-18T10:51:30;5.47;;;2.87;;
13797;SDS011;6970;51.340;3.240;2022-11-18T10:59:38;8.63;;;3.03;;
13797;SDS011;6970;51.340;3.240;2022-11-18T11:04:43;7.27;;;2.43;;
13797;SDS011;6970;51.340;3.240;2022-11-18T11:07:25;6.57;;;2.27;;
13797;SDS011;6970;51.340;3.240;2022-11-18T11:10:13;6.17;;;2.73;;
13797;SDS011;6970;51.340;3.240;2022-11-18T11:13:03;7.43;;;2.10;;
13797;SDS011;6970;51.340;3.240;2022-11-18T11:15:42;5.80;;;2.67;;
13797;SDS011;6970;51.340;3.240;2022-11-18T11:18:13;6.30;;;2.50;;
13797;SDS011;6970;51.340;3.240;2022-11-18T11:21:12;5.07;;;2.23;;
13797;SDS011;6970;51.340;3.240;2022-11-18T11:23:41;5.57;;;2.60;;
13797;SDS011;6970;51.340;3.240;2022-11-18T11:37:09;8.10;;;2.47;;
13797;SDS011;6970;51.340;3.240;2022-11-18T11:42:57;6.87;;;2.20;;
13797;SDS011;6970;51.340;3.240;2022-11-18T11:51:23;6.33;;;2.50;;
13797;SDS011;6970;51.340;3.240;2022-11-18T12:07:56;8.07;;;3.30;;
13797;SDS011;6970;51.340;3.240;2022-11-18T12:26:50;7.03;;;2.80;;
13797;SDS011;6970;51.340;3.240;2022-11-18T12:31:55;7.07;;;3.10;;
13797;SDS011;6970;51.340;3.240;2022-11-18T12:34:28;4.53;;;2.70;;
13797;SDS011;6970;51.340;3.240;2022-11-18T12:36:56;9.43;;;2.70;;
13797;SDS011;6970;51.340;3.240;2022-11-18T12:42:37;3.23;;;2.20;;
13797;SDS011;6970;51.340;3.240;2022-11-18T12:45:53;6.67;;;2.83;;
13797;SDS011;6970;51.340;3.240;2022-11-18T12:55:59;8.67;;;3.00;;
13797;SDS011;6970;51.340;3.240;2022-11-18T12:58:56;6.77;;;2.73;;
13797;SDS011;6970;51.340;3.240;2022-11-18T13:01:28;5.37;;;2.43;;
13797;SDS011;6970;51.340;3.240;2022-11-18T13:04:16;6.33;;;2.73;;
13797;SDS011;6970;51.340;3.240;2022-11-18T13:06:47;6.83;;;2.30;;
13797;SDS011;6970;51.340;3.240;2022-11-18T13:09:20;6.57;;;3.17;;
13797;SDS011;6970;51.340;3.240;2022-11-18T13:12:01;5.20;;;2.40;;
13797;SDS011;6970;51.340;3.240;2022-11-18T13:14:40;8.23;;;2.93;;
13797;SDS011;6970;51.340;3.240;2022-11-18T13:20:18;3.93;;;2.17;;
13797;SDS011;6970;51.340;3.240;2022-11-18T13:25:45;6.17;;;3.17;;
13797;SDS011;6970;51.340;3.240;2022-11-18T13:34:16;6.10;;;3.00;;
13797;SDS011;6970;51.340;3.240;2022-11-18T13:36:48;5.67;;;2.60;;
13797;SDS011;6970;51.340;3.240;2022-11-18T13:39:21;7.23;;;3.10;;
13797;SDS011;6970;51.340;3.240;2022-11-18T13:42:03;7.93;;;2.63;;
13797;SDS011;6970;51.340;3.240;2022-11-18T13:44:36;6.57;;;2.67;;
13797;SDS011;6970;51.340;3.240;2022-11-18T13:50:12;6.97;;;3.30;;
13797;SDS011;6970;51.340;3.240;2022-11-18T13:55:35;9.33;;;2.90;;
13797;SDS011;6970;51.340;3.240;2022-11-18T14:00:55;5.57;;;3.00;;
13797;SDS011;6970;51.340;3.240;2022-11-18T14:03:30;5.33;;;3.10;;
13797;SDS011;6970;51.340;3.240;2022-11-18T14:06:06;6.70;;;3.20;;
13797;SDS011;6970;51.340;3.240;2022-11-18T14:08:34;7.13;;;3.27;;
13797;SDS011;6970;51.340;3.240;2022-11-18T14:11:03;4.03;;;2.60;;
13797;SDS011;6970;51.340;3.240;2022-11-18T14:13:33;7.50;;;2.70;;
13797;SDS011;6970;51.340;3.240;2022-11-18T14:18:44;6.87;;;2.57;;
13797;SDS011;6970;51.340;3.240;2022-11-18T14:21:13;6.93;;;2.90;;
13797;SDS011;6970;51.340;3.240;2022-11-18T14:24:00;5.37;;;2.40;;
13797;SDS011;6970;51.340;3.240;2022-11-18T14:26:29;10.13;;;2.53;;
13797;SDS011;6970;51.340;3.240;2022-11-18T14:28:59;7.13;;;2.50;;
13797;SDS011;6970;51.340;3.240;2022-11-18T14:31:29;5.13;;;2.47;;
13797;SDS011;6970;51.340;3.240;2022-11-18T14:36:52;3.73;;;2.50;;
13797;SDS011;6970;51.340;3.240;2022-11-18T14:39:25;5.70;;;3.20;;
13797;SDS011;6970;51.340;3.240;2022-11-18T14:41:57;4.60;;;2.80;;
13797;SDS011;6970;51.340;3.240;2022-11-18T14:44:25;6.13;;;2.70;;
13797;SDS011;6970;51.340;3.240;2022-11-18T14:46:56;5.17;;;2.93;;
13797;SDS011;6970;51.340;3.240;2022-11-18T14:49:25;5.27;;;2.40;;
13797;SDS011;6970;51.340;3.240;2022-11-18T14:51:55;6.50;;;2.57;;
13797;SDS011;6970;51.340;3.240;2022-11-18T14:54:23;12.87;;;2.93;;
13797;SDS011;6970;51.340;3.240;2022-11-18T14:56:53;7.80;;;3.00;;
13797;SDS011;6970;51.340;3.240;2022-11-18T14:59:23;8.23;;;2.20;;
13797;SDS011;6970;51.340;3.240;2022-11-18T15:01:50;6.20;;;2.20;;
13797;SDS011;6970;51.340;3.240;2022-11-18T15:04:17;6.53;;;1.50;;
13797;SDS011;6970;51.340;3.240;2022-11-18T15:06:47;3.47;;;1.70;;
13797;SDS011;6970;51.340;3.240;2022-11-18T15:09:14;5.07;;;2.20;;
13797;SDS011;6970;51.340;3.240;2022-11-18T15:11:41;6.47;;;2.00;;
13797;SDS011;6970;51.340;3.240;2022-11-18T15:14:10;5.30;;;1.60;;
13797;SDS011;6970;51.340;3.240;2022-11-18T15:16:37;4.00;;;1.80;;
13797;SDS011;6970;51.340;3.240;2022-11-18T15:19:05;7.23;;;2.03;;
13797;SDS011;6970;51.340;3.240;2022-11-18T15:21:35;3.83;;;1.50;;
13797;SDS011;6970;51.340;3.240;2022-11-18T15:24:02;6.57;;;1.60;;
13797;SDS011;6970;51.340;3.240;2022-11-18T15:26:33;4.53;;;1.40;;
13797;SDS011;6970;51.340;3.240;2022-11-18T15:29:03;5.00;;;2.07;;
13797;SDS011;6970;51.340;3.240;2022-11-18T15:31:30;5.90;;;1.63;;
13797;SDS011;6970;51.340;3.240;2022-11-18T15:33:58;11.80;;;2.00;;
13797;SDS011;6970;51.340;3.240;2022-11-18T15:36:32;4.67;;;1.87;;
13797;SDS011;6970;51.340;3.240;2022-11-18T15:38:59;7.07;;;2.03;;
13797;SDS011;6970;51.340;3.240;2022-11-18T15:41:26;6.33;;;2.10;;
13797;SDS011;6970;51.340;3.240;2022-11-18T15:43:55;4.63;;;1.33;;
13797;SDS011;6970;51.340;3.240;2022-11-18T15:46:24;5.17;;;1.60;;
13797;SDS011;6970;51.340;3.240;2022-11-18T15:48:52;3.97;;;1.20;;
13797;SDS011;6970;51.340;3.240;2022-11-18T15:51:21;4.13;;;1.20;;
13797;SDS011;6970;51.340;3.240;2022-11-18T15:53:48;6.57;;;1.70;;
13797;SDS011;6970;51.340;3.240;2022-11-18T15:56:25;4.13;;;1.60;;
13797;SDS011;6970;51.340;3.240;2022-11-18T15:58:58;4.53;;;1.60;;
13797;SDS011;6970;51.340;3.240;2022-11-18T16:01:27;7.77;;;1.60;;
13797;SDS011;6970;51.340;3.240;2022-11-18T16:03:55;5.20;;;1.33;;
13797;SDS011;6970;51.340;3.240;2022-11-18T16:06:26;4.03;;;1.30;;
13797;SDS011;6970;51.340;3.240;2022-11-18T16:08:56;4.50;;;1.10;;
13797;SDS011;6970;51.340;3.240;2022-11-18T16:11:26;3.67;;;1.10;;
13797;SDS011;6970;51.340;3.240;2022-11-18T16:16:45;6.23;;;1.50;;
13797;SDS011;6970;51.340;3.240;2022-11-18T16:19:14;2.67;;;1.10;;
13797;SDS011;6970;51.340;3.240;2022-11-18T16:21:46;6.03;;;1.43;;
13797;SDS011;6970;51.340;3.240;2022-11-18T16:24:15;5.47;;;1.20;;
13797;SDS011;6970;51.340;3.240;2022-11-18T16:26:46;2.90;;;1.33;;
13797;SDS011;6970;51.340;3.240;2022-11-18T16:29:14;4.73;;;1.53;;
13797;SDS011;6970;51.340;3.240;2022-11-18T16:31:43;3.57;;;1.27;;
13797;SDS011;6970;51.340;3.240;2022-11-18T16:34:28;4.43;;;1.70;;
13797;SDS011;6970;51.340;3.240;2022-11-18T16:36:55;5.63;;;1.77;;
13797;SDS011;6970;51.340;3.240;2022-11-18T16:41:58;4.23;;;1.43;;
13797;SDS011;6970;51.340;3.240;2022-11-18T16:47:03;6.70;;;1.50;;
13797;SDS011;6970;51.340;3.240;2022-11-18T16:49:40;4.07;;;1.17;;
13797;SDS011;6970;51.340;3.240;2022-11-18T16:52:10;5.37;;;1.53;;
13797;SDS011;6970;51.340;3.240;2022-11-18T16:54:39;5.23;;;1.80;;
13797;SDS011;6970;51.340;3.240;2022-11-18T16:57:13;5.10;;;1.40;;
13797;SDS011;6970;51.340;3.240;2022-11-18T16:59:40;3.20;;;1.23;;
13797;SDS011;6970;51.340;3.240;2022-11-18T17:04:38;5.67;;;1.70;;
13797;SDS011;6970;51.340;3.240;2022-11-18T17:07:11;3.70;;;1.67;;
13797;SDS011;6970;51.340;3.240;2022-11-18T17:09:44;3.30;;;1.13;;
13797;SDS011;6970;51.340;3.240;2022-11-18T17:12:12;4.33;;;1.27;;
13797;SDS011;6970;51.340;3.240;2022-11-18T17:14:45;4.17;;;1.30;;
13797;SDS011;6970;51.340;3.240;2022-11-18T17:19:48;4.30;;;1.27;;
13797;SDS011;6970;51.340;3.240;2022-11-18T17:22:19;3.97;;;1.20;;
13797;SDS011;6970;51.340;3.240;2022-11-18T17:24:46;2.57;;;1.40;;
13797;SDS011;6970;51.340;3.240;2022-11-18T17:27:13;4.67;;;1.50;;
13797;SDS011;6970;51.340;3.240;2022-11-18T17:29:39;5.80;;;1.50;;
13797;SDS011;6970;51.340;3.240;2022-11-18T17:34:37;2.37;;;1.60;;
13797;SDS011;6970;51.340;3.240;2022-11-18T17:37:10;2.07;;;1.37;;
13797;SDS011;6970;51.340;3.240;2022-11-18T17:42:08;6.03;;;2.03;;
13797;SDS011;6970;51.340;3.240;2022-11-18T17:44:43;2.80;;;1.20;;
13797;SDS011;6970;51.340;3.240;2022-11-18T17:49:43;2.97;;;1.10;;
13797;SDS011;6970;51.340;3.240;2022-11-18T17:52:12;6.37;;;0.90;;
13797;SDS011;6970;51.340;3.240;2022-11-18T17:54:42;4.50;;;2.00;;
13797;SDS011;6970;51.340;3.240;2022-11-18T17:57:12;6.37;;;3.20;;
13797;SDS011;6970;51.340;3.240;2022-11-18T17:59:40;4.87;;;3.63;;
13797;SDS011;6970;51.340;3.240;2022-11-18T18:02:10;6.57;;;4.60;;
13797;SDS011;6970;51.340;3.240;2022-11-18T18:04:38;5.03;;;2.57;;
13797;SDS011;6970;51.340;3.240;2022-11-18T18:07:07;3.60;;;2.57;;
13797;SDS011;6970;51.340;3.240;2022-11-18T18:09:36;3.53;;;2.40;;
13797;SDS011;6970;51.340;3.240;2022-11-18T18:12:03;2.90;;;1.90;;
13797;SDS011;6970;51.340;3.240;2022-11-18T18:17:23;3.00;;;0.93;;
13797;SDS011;6970;51.340;3.240;2022-11-18T18:19:52;4.17;;;0.90;;
13797;SDS011;6970;51.340;3.240;2022-11-18T18:22:29;3.57;;;1.07;;
13797;SDS011;6970;51.340;3.240;2022-11-18T18:24:57;2.20;;;1.20;;
13797;SDS011;6970;51.340;3.240;2022-11-18T18:27:29;3.00;;;0.83;;
13797;SDS011;6970;51.340;3.240;2022-11-18T18:29:58;2.47;;;0.90;;
13797;SDS011;6970;51.340;3.240;2022-11-18T18:32:27;2.93;;;1.03;;
13797;SDS011;6970;51.340;3.240;2022-11-18T18:34:58;3.53;;;1.93;;
13797;SDS011;6970;51.340;3.240;2022-11-18T18:37:27;3.47;;;1.00;;
13797;SDS011;6970;51.340;3.240;2022-11-18T18:44:54;3.40;;;1.47;;
13797;SDS011;6970;51.340;3.240;2022-11-18T18:47:41;2.93;;;1.27;;
13797;SDS011;6970;51.340;3.240;2022-11-18T18:50:11;2.73;;;1.93;;
13797;SDS011;6970;51.340;3.240;2022-11-18T18:52:42;2.50;;;1.50;;